Terminal Aerodrome Forecast
Issued by NWS

Home | Current Version | Previous Version | Text Only | Print | Product List | Glossary On
Versions: 1 2 3 4 5 6 7 8 9 10 11 12 13 14 15 16 17 18 19 20
000
FTAK31 PANC 181136
TAFACD
TAF
PACD 181136Z 1812/1912 18005KT P6SM VCSH SCT025 BKN035
      TEMPO 1812/1815 BKN025
     FM181900 32006KT P6SM -SHRA SCT015 BKN025
     FM190800 29003KT P6SM BKN050=

USA.gov is the U.S. government's official web portal to all federal, state and local government web resources and services.